Time;durP1;ratioP1;P1;durP2;ratioP2;P2;SDS_P1;SDS_P2;PMS_P1;PMS_P2;Temp;Humidity;BMP_temperature;BMP_pressure;BME280_temperature;BME280_humidity;BME280_pressure;Samples;Min_cycle;Max_cycle;Signal;HPM_P1;HPM_P2
2023/05/19 00:01:58;;;;;;;14.68;5.65;;;8.30;99.90;;;;;;5090205;28;20032;-62
2023/05/19 00:04:25;;;;;;;12.88;5.28;;;8.30;99.90;;;;;;5089559;28;20036;-62
2023/05/19 00:06:52;;;;;;;16.75;6.32;;;8.30;99.90;;;;;;5090557;28;20040;-62
2023/05/19 00:09:18;;;;;;;11.90;5.10;;;8.30;99.90;;;;;;5071784;28;20044;-63
2023/05/19 00:11:44;;;;;;;10.50;5.13;;;8.30;99.90;;;;;;5091192;28;20044;-63
2023/05/19 00:14:10;;;;;;;12.32;5.45;;;8.20;99.90;;;;;;5089966;28;20032;-62
2023/05/19 00:16:37;;;;;;;15.18;5.53;;;8.20;99.90;;;;;;5091292;28;20161;-62
2023/05/19 00:19:04;;;;;;;11.45;4.97;;;8.20;99.90;;;;;;5091014;28;20046;-63
2023/05/19 00:21:30;;;;;;;14.68;5.90;;;8.30;99.90;;;;;;5090424;28;20107;-63
2023/05/19 00:23:56;;;;;;;16.98;5.13;;;8.20;99.90;;;;;;5090502;28;20115;-62
2023/05/19 00:26:23;;;;;;;15.48;5.20;;;8.20;99.90;;;;;;5072996;28;20036;-63
2023/05/19 00:28:49;;;;;;;11.88;6.15;;;8.30;99.90;;;;;;5089964;28;20036;-63
2023/05/19 00:31:15;;;;;;;11.13;6.25;;;8.20;99.90;;;;;;5073052;28;20051;-62
2023/05/19 00:33:40;;;;;;;13.07;5.97;;;8.20;99.90;;;;;;5089386;28;20040;-63
2023/05/19 00:36:06;;;;;;;16.33;6.43;;;8.30;99.90;;;;;;5087341;28;20036;-63
2023/05/19 00:38:34;;;;;;;11.73;6.30;;;8.20;99.90;;;;;;5091757;28;20101;-62
2023/05/19 00:41:01;;;;;;;17.52;6.25;;;8.20;99.90;;;;;;5093312;28;20024;-63
2023/05/19 00:43:26;;;;;;;11.65;5.78;;;8.20;99.90;;;;;;5077220;28;20036;-62
2023/05/19 00:45:52;;;;;;;13.68;5.57;;;8.20;99.90;;;;;;5075645;28;20044;-62
2023/05/19 00:48:18;;;;;;;13.32;6.07;;;8.20;99.90;;;;;;5075448;28;20040;-63
2023/05/19 00:50:44;;;;;;;13.15;6.35;;;8.20;99.90;;;;;;5093964;28;20039;-63
2023/05/19 00:53:10;;;;;;;14.43;6.32;;;8.20;99.90;;;;;;5078095;28;20089;-62
2023/05/19 00:55:39;;;;;;;15.45;5.90;;;8.20;99.90;;;;;;5091630;28;20044;-62
2023/05/19 00:58:06;;;;;;;14.73;7.15;;;8.20;99.90;;;;;;5091206;28;20032;-62
2023/05/19 01:00:32;;;;;;;25.83;6.85;;;8.10;99.90;;;;;;5093426;28;20036;-62
2023/05/19 01:02:58;;;;;;;21.75;6.28;;;8.10;99.90;;;;;;5094782;28;20039;-63
2023/05/19 01:05:24;;;;;;;13.35;5.55;;;8.10;99.90;;;;;;5093492;28;20036;-62
2023/05/19 01:07:52;;;;;;;16.80;6.93;;;8.10;99.90;;;;;;5086321;28;20460;-63
2023/05/19 01:10:18;;;;;;;20.15;6.53;;;8.10;99.90;;;;;;5093513;28;20070;-62
2023/05/19 01:12:44;;;;;;;13.10;6.22;;;8.10;99.90;;;;;;5075726;28;20040;-62
2023/05/19 01:15:11;;;;;;;19.15;7.20;;;8.10;99.90;;;;;;5091840;28;20036;-63
2023/05/19 01:17:45;;;;;;;20.90;7.35;;;8.10;99.90;;;;;;5093007;28;20127;-63
2023/05/19 01:20:29;;;;;;;21.25;6.55;;;8.10;99.90;;;;;;5094593;28;20093;-62
2023/05/19 01:23:35;;;;;;;14.85;6.22;;;8.10;99.90;;;;;;5094680;28;20119;-62
2023/05/19 01:26:01;;;;;;;12.38;6.75;;;8.10;99.90;;;;;;5074776;28;20040;-63
2023/05/19 01:28:45;;;;;;;14.60;6.03;;;8.10;99.90;;;;;;5093926;28;20044;-62
2023/05/19 01:31:11;;;;;;;15.73;6.40;;;8.10;99.90;;;;;;5092751;28;20092;-63
2023/05/19 01:33:40;;;;;;;17.13;6.65;;;8.10;99.90;;;;;;5090299;28;20040;-63
2023/05/19 01:36:07;;;;;;;21.45;6.82;;;8.10;99.90;;;;;;5073641;28;20055;-62
2023/05/19 01:38:33;;;;;;;16.30;6.97;;;8.00;99.90;;;;;;5092978;28;20044;-63
2023/05/19 01:41:01;;;;;;;14.45;5.95;;;8.00;99.90;;;;;;5093028;28;20036;-62
2023/05/19 01:43:28;;;;;;;14.65;7.13;;;8.00;99.90;;;;;;5091968;28;20052;-62
2023/05/19 01:45:54;;;;;;;17.73;7.03;;;8.00;99.90;;;;;;5093047;28;20062;-63
2023/05/19 01:48:20;;;;;;;18.40;6.30;;;8.00;99.90;;;;;;5093876;28;20109;-63
2023/05/19 01:50:46;;;;;;;17.63;6.57;;;7.90;99.90;;;;;;5092115;28;20089;-62
2023/05/19 01:53:11;;;;;;;17.67;6.47;;;7.90;99.90;;;;;;5093399;28;20568;-63
2023/05/19 01:55:46;;;;;;;14.30;6.50;;;7.90;99.90;;;;;;5075114;28;20485;-63
2023/05/19 01:58:43;;;;;;;18.60;6.95;;;7.90;99.90;;;;;;5093985;28;20205;-63
2023/05/19 02:01:36;;;;;;;18.42;6.95;;;7.90;99.90;;;;;;5085949;28;20115;-63
2023/05/19 02:04:08;;;;;;;13.85;7.30;;;7.90;99.90;;;;;;5092792;28;20044;-63
2023/05/19 02:06:46;;;;;;;18.45;6.38;;;7.80;99.90;;;;;;5089512;28;20485;-63
2023/05/19 02:09:53;;;;;;;15.88;6.78;;;7.90;99.90;;;;;;5093720;28;20107;-63
2023/05/19 02:12:26;;;;;;;16.80;6.93;;;7.80;99.90;;;;;;5070143;28;20044;-63
2023/05/19 02:15:08;;;;;;;18.73;6.80;;;7.80;99.90;;;;;;5074651;28;20040;-63
2023/05/19 02:17:35;;;;;;;;;;;7.80;99.90;;;;;;5090373;28;20032;-63
2023/05/19 02:20:03;;;;;;;12.00;6.35;;;7.80;99.90;;;;;;5092961;28;19923;-63
2023/05/19 02:22:29;;;;;;;18.17;7.13;;;7.80;99.90;;;;;;5075188;28;20044;-63
2023/05/19 02:24:56;;;;;;;18.42;6.32;;;7.80;99.90;;;;;;5092395;28;20039;-63
2023/05/19 02:27:22;;;;;;;18.23;6.78;;;7.80;99.90;;;;;;5090957;28;20068;-63
2023/05/19 02:29:47;;;;;;;19.63;7.22;;;7.80;99.90;;;;;;5092706;28;20032;-63
2023/05/19 02:32:14;;;;;;;16.55;6.55;;;7.80;99.90;;;;;;5092234;28;20028;-62
2023/05/19 02:34:41;;;;;;;19.70;6.90;;;7.70;99.90;;;;;;5073520;28;20048;-63
2023/05/19 02:37:06;;;;;;;14.02;7.10;;;7.80;99.90;;;;;;5091449;28;20153;-62
2023/05/19 02:39:34;;;;;;;14.35;6.53;;;7.70;99.90;;;;;;5092358;28;20082;-62
2023/05/19 02:42:00;;;;;;;17.73;7.35;;;7.80;99.90;;;;;;5092263;28;20040;-63
2023/05/19 02:44:25;;;;;;;13.68;7.25;;;7.70;99.90;;;;;;5092593;28;20116;-63
2023/05/19 02:46:51;;;;;;;16.33;7.15;;;7.70;99.90;;;;;;5091134;28;20090;-63
2023/05/19 02:49:17;;;;;;;19.23;6.70;;;7.60;99.90;;;;;;5093036;28;20150;-63
2023/05/19 02:51:42;;;;;;;16.63;6.82;;;7.60;99.90;;;;;;5073083;28;20058;-63
2023/05/19 02:54:08;;;;;;;16.67;6.53;;;7.60;99.90;;;;;;5091557;28;20401;-63
2023/05/19 02:56:33;;;;;;;14.77;7.53;;;7.60;99.90;;;;;;5090155;28;20036;-62
2023/05/19 02:58:59;;;;;;;15.63;6.53;;;7.60;99.90;;;;;;5091765;28;20035;-63
2023/05/19 03:01:25;;;;;;;17.17;7.00;;;7.60;99.90;;;;;;5092374;28;20036;-62
2023/05/19 03:03:50;;;;;;;18.10;7.03;;;7.60;99.90;;;;;;5092469;28;20109;-62
2023/05/19 03:06:16;;;;;;;17.63;7.07;;;7.60;99.90;;;;;;5088197;28;20119;-63
2023/05/19 03:08:42;;;;;;;14.10;7.50;;;7.60;99.90;;;;;;5092312;28;20061;-63
2023/05/19 03:11:08;;;;;;;16.20;7.32;;;7.60;99.90;;;;;;5091397;28;20420;-63
2023/05/19 03:13:34;;;;;;;16.27;7.40;;;7.60;99.90;;;;;;5092571;28;20417;-63
2023/05/19 03:16:00;;;;;;;23.08;7.65;;;7.60;99.90;;;;;;5089904;28;20470;-63
2023/05/19 03:18:26;;;;;;;14.50;7.47;;;7.60;99.90;;;;;;5088871;28;20086;-63
2023/05/19 03:20:52;;;;;;;15.43;7.47;;;7.60;99.90;;;;;;5088051;28;20040;-62
2023/05/19 03:23:19;;;;;;;19.25;7.03;;;7.60;99.90;;;;;;5090877;28;20044;-63
2023/05/19 03:25:45;;;;;;;16.63;7.20;;;7.60;99.90;;;;;;5091088;28;20050;-63
2023/05/19 03:28:11;;;;;;;19.60;7.60;;;7.50;99.90;;;;;;5091393;28;20036;-63
2023/05/19 03:30:36;;;;;;;20.65;7.88;;;7.50;99.90;;;;;;5090760;28;20118;-62
2023/05/19 03:33:02;;;;;;;19.60;7.50;;;7.50;99.90;;;;;;5092118;28;20391;-63
2023/05/19 03:35:28;;;;;;;16.50;7.25;;;7.50;99.90;;;;;;5090870;28;20394;-62
2023/05/19 03:37:53;;;;;;;19.77;7.47;;;7.50;99.90;;;;;;5091716;28;20051;-62
2023/05/19 03:40:19;;;;;;;16.60;7.72;;;7.40;99.90;;;;;;5089696;28;20040;-63
2023/05/19 03:42:44;;;;;;;18.55;7.75;;;7.40;99.90;;;;;;5091510;28;20040;-63
2023/05/19 03:45:10;;;;;;;18.83;7.82;;;7.40;99.90;;;;;;5091515;28;20058;-63
2023/05/19 03:47:36;;;;;;;17.92;7.30;;;7.40;99.90;;;;;;5091554;28;20068;-63
2023/05/19 03:50:01;;;;;;;14.93;7.10;;;7.40;99.90;;;;;;5089568;28;20040;-63
2023/05/19 03:52:27;;;;;;;13.95;7.10;;;7.40;99.90;;;;;;5090972;28;20561;-63
2023/05/19 03:54:53;;;;;;;18.75;7.75;;;7.30;99.90;;;;;;5088716;28;20067;-62
2023/05/19 03:57:18;;;;;;;13.38;7.40;;;7.30;99.90;;;;;;5091364;28;20024;-63
2023/05/19 03:59:44;;;;;;;17.50;7.60;;;7.30;99.90;;;;;;5104363;22;20040;-69
2023/05/19 04:02:10;;;;;;;18.27;7.85;;;7.30;99.90;;;;;;5083748;28;20513;-69
2023/05/19 04:04:36;;;;;;;20.13;7.80;;;7.30;99.90;;;;;;5089020;28;20449;-69
2023/05/19 04:07:02;;;;;;;16.27;7.50;;;7.30;99.90;;;;;;5091057;28;20036;-69
2023/05/19 04:09:30;;;;;;;21.40;8.18;;;7.30;99.90;;;;;;5085307;28;20042;-69
2023/05/19 04:11:56;;;;;;;19.48;8.05;;;7.30;99.90;;;;;;5089888;28;20064;-69
2023/05/19 04:14:22;;;;;;;18.25;8.05;;;7.30;99.90;;;;;;5095981;28;20072;-69
2023/05/19 04:16:48;;;;;;;20.08;8.38;;;7.30;99.90;;;;;;5095167;28;20538;-69
2023/05/19 04:19:13;;;;;;;19.17;8.32;;;7.40;99.90;;;;;;5094418;28;20040;-69
2023/05/19 04:21:39;;;;;;;18.83;8.48;;;7.40;99.90;;;;;;5093796;28;20079;-70
2023/05/19 04:24:05;;;;;;;21.88;8.48;;;7.40;99.90;;;;;;5093307;28;20089;-69
2023/05/19 04:26:33;;;;;;;17.92;8.90;;;7.40;99.90;;;;;;5094994;28;20047;-70
2023/05/19 04:29:00;;;;;;;15.93;8.10;;;7.40;99.90;;;;;;5093918;28;20039;-70
2023/05/19 04:31:27;;;;;;;21.05;8.55;;;7.50;99.90;;;;;;5094484;28;20561;-69
2023/05/19 04:33:52;;;;;;;18.58;8.85;;;7.50;99.90;;;;;;5095193;28;20119;-70
2023/05/19 04:36:20;;;;;;;16.63;8.48;;;7.50;99.90;;;;;;5093559;28;20166;-69
2023/05/19 04:38:46;;;;;;;20.45;8.63;;;7.60;99.90;;;;;;5093657;28;20044;-69
2023/05/19 04:41:12;;;;;;;25.30;8.68;;;7.60;99.90;;;;;;5094580;28;20039;-69
2023/05/19 04:43:40;;;;;;;20.52;8.73;;;7.60;99.90;;;;;;5095281;28;20059;-69
2023/05/19 04:46:10;;;;;;;15.73;7.97;;;7.70;99.90;;;;;;5073255;28;20041;-69
2023/05/19 04:48:36;;;;;;;24.42;9.02;;;7.70;99.90;;;;;;5092605;28;20050;-69
2023/05/19 04:51:02;;;;;;;17.10;9.23;;;7.80;99.90;;;;;;5092258;28;20110;-69
2023/05/19 04:53:28;;;;;;;20.75;8.70;;;7.90;99.90;;;;;;5094823;28;20039;-69
2023/05/19 04:55:55;;;;;;;17.50;10.05;;;8.00;99.90;;;;;;5095195;28;20485;-69
2023/05/19 04:58:21;;;;;;;20.23;8.88;;;8.10;99.90;;;;;;5094759;28;20088;-69
2023/05/19 05:00:46;;;;;;;20.55;9.07;;;8.20;99.90;;;;;;5087538;28;20046;-70
2023/05/19 05:03:13;;;;;;;20.02;9.35;;;8.30;99.90;;;;;;5094607;28;20432;-69
2023/05/19 05:05:39;;;;;;;19.88;9.13;;;8.40;99.90;;;;;;5094932;28;20040;-69
2023/05/19 05:08:05;;;;;;;18.00;9.60;;;8.50;99.90;;;;;;5094422;28;20036;-69
2023/05/19 05:10:31;;;;;;;21.30;8.82;;;8.60;99.90;;;;;;5091012;28;20040;-69
2023/05/19 05:12:57;;;;;;;17.90;9.13;;;8.70;99.90;;;;;;5092909;28;20143;-69
2023/05/19 05:15:23;;;;;;;19.58;9.30;;;8.80;99.90;;;;;;5094439;28;20036;-69
2023/05/19 05:17:49;;;;;;;18.63;8.75;;;8.90;99.90;;;;;;5094150;28;20035;-69
2023/05/19 05:20:15;;;;;;;20.17;9.50;;;9.00;99.90;;;;;;5092248;28;20140;-70
2023/05/19 05:22:41;;;;;;;16.90;8.73;;;9.10;99.90;;;;;;5093542;28;20630;-70
2023/05/19 05:25:07;;;;;;;19.38;9.35;;;9.20;99.90;;;;;;5094017;28;20024;-70
2023/05/19 05:27:33;;;;;;;22.13;9.55;;;9.30;99.90;;;;;;5093835;28;20047;-70
2023/05/19 05:29:58;;;;;;;17.77;8.50;;;9.30;99.90;;;;;;5093046;28;20032;-70
2023/05/19 05:32:24;;;;;;;15.75;8.63;;;9.40;99.90;;;;;;5093268;28;20063;-70
2023/05/19 05:34:50;;;;;;;16.17;7.97;;;9.50;99.90;;;;;;5093753;28;20032;-70
2023/05/19 05:37:15;;;;;;;17.52;8.25;;;9.60;99.90;;;;;;5094249;28;20401;-70
2023/05/19 05:39:41;;;;;;;16.38;7.75;;;9.60;99.90;;;;;;5092567;28;20032;-70
2023/05/19 05:42:10;;;;;;;14.57;7.70;;;9.70;99.90;;;;;;5092472;28;20035;-69
2023/05/19 05:44:36;;;;;;;17.08;8.30;;;9.80;99.90;;;;;;5093928;28;20039;-70
2023/05/19 05:47:02;;;;;;;16.55;7.85;;;9.80;99.90;;;;;;5093228;28;20515;-69
2023/05/19 05:49:28;;;;;;;15.93;8.18;;;9.90;99.90;;;;;;5092650;28;20539;-69
2023/05/19 05:51:54;;;;;;;15.02;8.32;;;9.90;99.90;;;;;;5093032;28;20040;-70
2023/05/19 05:54:21;;;;;;;17.00;7.97;;;10.00;99.90;;;;;;5092717;28;20123;-69
2023/05/19 05:56:47;;;;;;;17.25;7.78;;;10.10;99.90;;;;;;5093632;28;20042;-70
2023/05/19 05:59:14;;;;;;;12.85;7.07;;;10.10;99.90;;;;;;5092652;28;20028;-69
2023/05/19 06:01:40;;;;;;;11.82;6.82;;;10.20;99.90;;;;;;5091835;28;20508;-69
2023/05/19 06:04:06;;;;;;;13.35;7.35;;;10.40;99.90;;;;;;5092113;28;20397;-69
2023/05/19 06:06:32;;;;;;;18.92;7.35;;;10.50;99.90;;;;;;5090602;28;20051;-69
2023/05/19 06:08:57;;;;;;;13.25;6.78;;;10.60;99.90;;;;;;5091832;28;20032;-69
2023/05/19 06:11:23;;;;;;;14.00;7.00;;;10.70;99.90;;;;;;5086964;28;20044;-69
2023/05/19 06:13:49;;;;;;;17.75;6.80;;;10.80;99.90;;;;;;5092715;28;20039;-69
2023/05/19 06:16:15;;;;;;;13.35;6.43;;;10.90;99.90;;;;;;5092532;28;20085;-70
2023/05/19 06:18:40;;;;;;;11.77;6.45;;;11.00;99.90;;;;;;5093184;28;20032;-70
2023/05/19 06:21:09;;;;;;;13.05;7.05;;;11.10;99.90;;;;;;5091742;28;20439;-70
2023/05/19 06:23:35;;;;;;;13.55;6.50;;;11.20;99.90;;;;;;5090675;28;20090;-70
2023/05/19 06:26:00;;;;;;;11.52;6.88;;;11.30;99.90;;;;;;5093411;28;20044;-69
2023/05/19 06:28:26;;;;;;;12.38;6.95;;;11.40;99.90;;;;;;5093359;28;20050;-69
2023/05/19 06:30:51;;;;;;;13.18;6.90;;;11.60;99.90;;;;;;5090972;28;20138;-69
2023/05/19 06:33:17;;;;;;;12.45;6.53;;;11.70;99.90;;;;;;5091373;28;20044;-70
2023/05/19 06:35:43;;;;;;;16.67;7.25;;;11.80;99.90;;;;;;5074367;28;20036;-69
2023/05/19 06:38:08;;;;;;;13.05;6.93;;;11.90;99.90;;;;;;5092785;28;20089;-70
2023/05/19 06:54:14;;;;;;;12.35;7.13;;;12.40;99.90;;;;;;5702993;22;20460;-64
2023/05/19 06:56:40;;;;;;;14.80;7.55;;;12.50;99.90;;;;;;5062693;28;20040;-64
2023/05/19 06:59:05;;;;;;;13.75;6.82;;;12.60;99.90;;;;;;5058784;28;20056;-64
2023/05/19 07:01:31;;;;;;;18.15;7.25;;;12.80;99.90;;;;;;5064495;28;20527;-63
2023/05/19 07:03:57;;;;;;;11.05;7.10;;;12.90;99.90;;;;;;5058859;28;20040;-62
2023/05/19 07:06:22;;;;;;;14.75;7.43;;;13.00;99.90;;;;;;5056356;28;20044;-62
2023/05/19 07:08:48;;;;;;;14.77;7.25;;;13.10;99.90;;;;;;5034964;28;20152;-62
2023/05/19 07:11:13;;;;;;;11.65;6.93;;;13.20;99.90;;;;;;5051954;28;20040;-62
2023/05/19 07:13:39;;;;;;;14.95;6.50;;;13.40;99.90;;;;;;5055982;28;20041;-62
2023/05/19 07:16:05;;;;;;;11.98;6.13;;;13.40;99.90;;;;;;5057790;28;20068;-62
2023/05/19 07:18:30;;;;;;;14.65;6.50;;;13.50;99.90;;;;;;5050139;28;20028;-62
2023/05/19 07:20:57;;;;;;;9.27;5.93;;;13.70;99.90;;;;;;5045403;28;20079;-62
2023/05/19 07:23:22;;;;;;;13.00;6.10;;;13.90;99.90;;;;;;5051474;28;20045;-62
2023/05/19 07:25:48;;;;;;;11.65;6.00;;;14.00;99.90;;;;;;5053885;28;20402;-62
2023/05/19 07:28:14;;;;;;;11.88;4.97;;;14.10;99.90;;;;;;5047236;28;20028;-63
2023/05/19 07:30:40;;;;;;;8.27;4.88;;;14.20;99.90;;;;;;5050859;28;20042;-62
2023/05/19 07:33:05;;;;;;;10.27;5.15;;;14.30;99.90;;;;;;5040848;28;20075;-63
2023/05/19 07:35:31;;;;;;;9.63;4.60;;;14.40;99.90;;;;;;5042632;28;20036;-63
2023/05/19 07:37:57;;;;;;;8.65;4.00;;;14.50;99.90;;;;;;5034170;28;20048;-62
2023/05/19 07:40:22;;;;;;;9.32;3.88;;;14.50;99.90;;;;;;5035065;28;20077;-63
2023/05/19 07:42:48;;;;;;;6.90;4.65;;;14.50;99.90;;;;;;5046621;28;20080;-63
2023/05/19 07:45:14;;;;;;;8.27;4.50;;;14.50;99.90;;;;;;5041792;28;20036;-62
2023/05/19 07:47:39;;;;;;;12.10;4.07;;;14.70;99.90;;;;;;5046554;28;20504;-62
2023/05/19 07:50:06;;;;;;;12.65;4.03;;;14.90;99.90;;;;;;5044023;28;20034;-62
2023/05/19 07:52:31;;;;;;;11.38;4.07;;;15.00;99.90;;;;;;5050904;28;20071;-62
2023/05/19 07:54:58;;;;;;;7.78;3.97;;;15.10;99.90;;;;;;5040732;28;20060;-62
2023/05/19 07:57:23;;;;;;;10.52;4.05;;;15.20;99.90;;;;;;5045504;28;20417;-63
2023/05/19 07:59:49;;;;;;;8.25;3.50;;;15.30;99.90;;;;;;5049092;28;20032;-62
2023/05/19 08:02:15;;;;;;;6.47;3.35;;;15.30;99.90;;;;;;5033296;28;20490;-63
2023/05/19 08:04:40;;;;;;;5.82;2.90;;;15.40;99.90;;;;;;5031298;28;20041;-62
2023/05/19 08:07:06;;;;;;;7.53;3.13;;;15.50;99.90;;;;;;5051252;28;20090;-62
2023/05/19 08:09:31;;;;;;;10.23;3.40;;;15.60;99.90;;;;;;5052038;28;20049;-62
2023/05/19 08:11:57;;;;;;;8.90;3.38;;;15.70;99.90;;;;;;5051610;28;20036;-62
2023/05/19 08:14:22;;;;;;;8.93;3.10;;;15.70;99.90;;;;;;5050723;28;20494;-62
2023/05/19 08:16:49;;;;;;;9.13;2.47;;;15.70;99.90;;;;;;5064320;28;20375;-62
2023/05/19 08:19:14;;;;;;;9.48;3.22;;;15.80;99.90;;;;;;5041202;28;20025;-62
2023/05/19 08:21:41;;;;;;;6.00;2.90;;;16.00;99.90;;;;;;5039320;28;20041;-62
2023/05/19 08:24:07;;;;;;;7.70;2.92;;;16.10;99.90;;;;;;5042340;28;20378;-62
2023/05/19 08:26:33;;;;;;;5.22;2.72;;;16.00;99.90;;;;;;5057290;28;20072;-62
2023/05/19 08:28:59;;;;;;;7.57;2.80;;;16.10;99.90;;;;;;5044863;28;20037;-62
2023/05/19 08:31:24;;;;;;;6.60;3.00;;;16.30;99.90;;;;;;5051172;28;20048;-62
2023/05/19 08:33:50;;;;;;;7.00;2.70;;;16.40;99.20;;;;;;5050799;28;20067;-62
2023/05/19 08:36:17;;;;;;;9.55;3.15;;;16.60;99.10;;;;;;5050836;28;20597;-62
2023/05/19 08:38:42;;;;;;;8.80;3.28;;;16.70;97.80;;;;;;5051242;28;20040;-62
2023/05/19 08:41:08;;;;;;;8.27;3.20;;;16.80;97.00;;;;;;5051012;28;20120;-63
2023/05/19 08:43:34;;;;;;;6.30;2.53;;;16.80;96.60;;;;;;5051100;28;20044;-62
2023/05/19 08:45:59;;;;;;;6.50;3.10;;;16.90;96.20;;;;;;5051166;28;20406;-62
2023/05/19 08:48:28;;;;;;;11.63;3.35;;;16.90;94.70;;;;;;5051606;28;20379;-62
2023/05/19 08:51:14;;;;;;;9.40;3.00;;;17.00;93.80;;;;;;5050429;28;20516;-63
2023/05/19 08:53:45;;;;;;;7.85;2.95;;;17.10;93.40;;;;;;5050953;28;20037;-62
2023/05/19 08:56:12;;;;;;;;;;;17.20;91.40;;;;;;5051769;28;20482;-63
2023/05/19 08:58:40;;;;;;;7.68;2.95;;;17.30;90.20;;;;;;5052527;28;19916;-62
2023/05/19 09:01:07;;;;;;;7.55;2.72;;;17.40;93.50;;;;;;5055073;28;20040;-62
2023/05/19 09:03:37;;;;;;;7.03;2.63;;;17.60;92.90;;;;;;5054780;28;20045;-63
2023/05/19 09:06:11;;;;;;;10.07;2.97;;;17.50;89.90;;;;;;5054802;28;20383;-62
2023/05/19 09:08:37;;;;;;;5.65;2.60;;;17.50;86.20;;;;;;5054733;28;20041;-62
2023/05/19 09:11:03;;;;;;;10.32;3.00;;;17.50;85.50;;;;;;5052276;28;20115;-63
2023/05/19 09:13:28;;;;;;;5.75;2.65;;;17.50;85.20;;;;;;5048653;28;20601;-62
2023/05/19 09:15:56;;;;;;;5.32;2.65;;;17.60;85.40;;;;;;5051919;28;20036;-62
2023/05/19 09:18:23;;;;;;;6.40;2.78;;;17.60;79.10;;;;;;5054726;28;20048;-62
2023/05/19 09:20:49;;;;;;;13.65;3.00;;;17.70;79.30;;;;;;5054427;28;20037;-62
2023/05/19 09:23:17;;;;;;;8.00;3.13;;;17.80;80.90;;;;;;5054101;28;20083;-62
2023/05/19 09:25:50;;;;;;;9.57;2.85;;;17.80;77.80;;;;;;5054278;28;20055;-62
2023/05/19 09:28:46;;;;;;;8.65;2.85;;;17.90;76.20;;;;;;5070229;28;20386;-62
2023/05/19 09:31:12;;;;;;;9.43;2.83;;;17.90;75.30;;;;;;5045913;28;20182;-62
2023/05/19 09:33:39;;;;;;;11.70;2.90;;;18.10;79.10;;;;;;5053993;28;20045;-63
2023/05/19 09:36:07;;;;;;;10.18;2.67;;;18.00;76.20;;;;;;5054161;28;20514;-63
2023/05/19 09:38:34;;;;;;;10.38;3.95;;;17.90;74.50;;;;;;5054310;28;20589;-62
2023/05/19 09:41:00;;;;;;;6.15;2.83;;;17.90;74.40;;;;;;5053137;28;20120;-62
2023/05/19 09:43:27;;;;;;;6.28;2.65;;;17.90;74.50;;;;;;5069395;28;20045;-62
2023/05/19 09:46:02;;;;;;;9.05;2.72;;;17.80;73.20;;;;;;5036081;28;20044;-61
2023/05/19 09:48:29;;;;;;;9.63;3.05;;;17.90;72.00;;;;;;5053863;28;20040;-62
2023/05/19 09:50:58;;;;;;;5.07;2.63;;;18.10;75.30;;;;;;5053823;28;20059;-62
2023/05/19 09:53:24;;;;;;;7.05;2.63;;;18.10;74.80;;;;;;5053707;28;20044;-63
2023/05/19 09:55:56;;;;;;;9.48;3.10;;;18.30;75.80;;;;;;5053821;28;20514;-62
2023/05/19 09:58:23;;;;;;;7.60;2.83;;;18.50;74.90;;;;;;5053459;28;20052;-62
2023/05/19 10:00:49;;;;;;;8.75;2.72;;;18.60;72.50;;;;;;5054045;28;20170;-62
2023/05/19 10:03:17;;;;;;;5.35;2.90;;;18.60;70.20;;;;;;5053583;28;20041;-61
2023/05/19 10:05:43;;;;;;;6.55;2.67;;;18.50;68.50;;;;;;5035730;28;20202;-63
2023/05/19 10:08:10;;;;;;;8.48;2.95;;;18.30;69.50;;;;;;5053735;28;20048;-63
2023/05/19 10:10:37;;;;;;;7.93;2.40;;;18.30;70.90;;;;;;5052760;28;20041;-62
2023/05/19 10:13:03;;;;;;;10.38;3.15;;;18.30;71.30;;;;;;5053384;28;20051;-62
2023/05/19 10:15:29;;;;;;;8.55;2.75;;;18.20;71.70;;;;;;5053009;28;20529;-63
2023/05/19 10:17:55;;;;;;;6.05;2.80;;;18.30;71.40;;;;;;5053715;28;20041;-62
2023/05/19 10:20:21;;;;;;;9.88;3.15;;;18.10;69.00;;;;;;5053613;28;20029;-62
2023/05/19 10:22:47;;;;;;;9.57;3.17;;;18.10;69.60;;;;;;5053499;28;20037;-62
2023/05/19 10:25:14;;;;;;;5.65;2.15;;;18.20;71.30;;;;;;5052987;28;20044;-63
2023/05/19 10:27:58;;;;;;;5.68;2.85;;;18.40;70.30;;;;;;5053187;28;20044;-62
2023/05/19 10:30:31;;;;;;;6.07;2.28;;;18.70;71.50;;;;;;5035407;28;20037;-62
2023/05/19 10:33:00;;;;;;;7.10;2.55;;;19.00;72.90;;;;;;5035380;28;20042;-63
2023/05/19 10:35:44;;;;;;;5.78;2.55;;;19.00;70.60;;;;;;5052831;28;20043;-63
2023/05/19 10:38:10;;;;;;;9.13;2.70;;;18.80;69.20;;;;;;5053091;28;20107;-63
2023/05/19 10:41:00;;;;;;;8.35;2.78;;;18.70;70.00;;;;;;5052671;28;20040;-62
2023/05/19 10:43:48;;;;;;;6.13;2.58;;;18.70;70.80;;;;;;5048810;28;20120;-62
2023/05/19 10:46:14;;;;;;;7.65;2.60;;;18.60;67.80;;;;;;5050323;28;20052;-62
2023/05/19 10:48:44;;;;;;;6.15;3.38;;;18.60;68.70;;;;;;5046977;28;20108;-62
2023/05/19 10:51:11;;;;;;;5.35;2.30;;;18.80;68.60;;;;;;5052864;28;20043;-62
2023/05/19 10:53:40;;;;;;;8.10;2.33;;;18.90;69.10;;;;;;5052221;28;20512;-62
2023/05/19 10:56:09;;;;;;;7.82;2.33;;;19.20;67.60;;;;;;5044145;28;20044;-62
2023/05/19 10:58:43;;;;;;;8.10;2.50;;;19.00;65.90;;;;;;5052289;28;20481;-62
2023/05/19 11:01:13;;;;;;;6.63;2.40;;;19.10;67.00;;;;;;5044051;28;20037;-62
2023/05/19 11:03:50;;;;;;;5.10;1.90;;;19.10;66.70;;;;;;5052153;28;20076;-62
2023/05/19 11:06:27;;;;;;;8.07;2.38;;;19.10;66.00;;;;;;5032741;28;20442;-62
2023/05/19 11:08:59;;;;;;;9.43;2.30;;;18.80;63.90;;;;;;5038830;28;20051;-62
2023/05/19 11:11:25;;;;;;;8.10;2.55;;;18.70;66.60;;;;;;5046981;28;20041;-62
2023/05/19 11:13:53;;;;;;;6.60;2.25;;;18.90;67.30;;;;;;5033888;28;20146;-62
2023/05/19 11:16:27;;;;;;;7.57;3.00;;;19.10;67.10;;;;;;5037523;28;20041;-63
2023/05/19 11:19:04;;;;;;;8.68;3.50;;;19.30;64.70;;;;;;5051790;28;20048;-63
2023/05/19 11:21:51;;;;;;;8.23;2.33;;;19.40;65.30;;;;;;5042412;28;20042;-62
2023/05/19 11:24:43;;;;;;;6.75;2.40;;;19.50;63.70;;;;;;5032268;28;20124;-63
2023/05/19 11:27:31;;;;;;;10.35;2.65;;;19.50;64.20;;;;;;5032315;28;20048;-63
2023/05/19 11:30:18;;;;;;;5.45;2.30;;;19.70;62.90;;;;;;5033756;28;20056;-62
2023/05/19 11:32:46;;;;;;;7.50;2.58;;;19.70;63.10;;;;;;5055229;28;20036;-62
2023/05/19 11:35:13;;;;;;;8.38;2.50;;;19.60;64.70;;;;;;5033517;28;20033;-62
2023/05/19 11:37:41;;;;;;;7.10;2.28;;;19.50;63.80;;;;;;5051974;28;20041;-63
2023/05/19 11:40:07;;;;;;;6.45;2.25;;;19.40;61.60;;;;;;5038036;28;20040;-62
2023/05/19 11:42:34;;;;;;;7.93;2.42;;;19.30;61.00;;;;;;5030600;28;20045;-62
2023/05/19 11:45:00;;;;;;;7.40;2.08;;;19.20;61.40;;;;;;5040900;28;20033;-62
2023/05/19 11:47:27;;;;;;;7.20;2.83;;;19.20;61.20;;;;;;5032444;28;20090;-63
2023/05/19 11:49:53;;;;;;;7.20;2.55;;;19.20;62.80;;;;;;5038839;28;20057;-62
2023/05/19 11:52:23;;;;;;;7.00;2.65;;;19.20;61.70;;;;;;5051134;28;20044;-62
2023/05/19 11:54:49;;;;;;;7.83;2.30;;;19.20;62.10;;;;;;5044943;28;20460;-62
2023/05/19 11:57:15;;;;;;;7.03;2.53;;;19.20;62.60;;;;;;5033579;28;20121;-62
2023/05/19 11:59:44;;;;;;;4.22;2.20;;;19.20;62.50;;;;;;5051979;28;20039;-63
2023/05/19 12:02:23;;;;;;;5.95;2.10;;;19.10;60.60;;;;;;5052038;28;20368;-63
2023/05/19 12:04:49;;;;;;;6.07;2.17;;;19.10;61.00;;;;;;5040097;28;20392;-63
2023/05/19 12:07:17;;;;;;;4.15;2.30;;;19.20;62.10;;;;;;5044595;28;20494;-62
2023/05/19 12:09:46;;;;;;;6.25;2.25;;;19.20;63.70;;;;;;5045263;28;20113;-62
2023/05/19 12:12:19;;;;;;;6.55;2.65;;;19.10;62.30;;;;;;5047704;28;20088;-63
2023/05/19 12:14:51;;;;;;;5.20;2.35;;;18.90;62.60;;;;;;5046100;28;20048;-62
2023/05/19 12:17:19;;;;;;;6.78;2.58;;;18.80;62.70;;;;;;5033236;28;20037;-63
2023/05/19 12:19:48;;;;;;;7.97;2.33;;;19.00;62.50;;;;;;5048559;28;20033;-62
2023/05/19 12:22:15;;;;;;;4.53;2.30;;;19.10;63.20;;;;;;5059634;28;20041;-62
2023/05/19 12:24:42;;;;;;;6.53;2.63;;;19.40;62.70;;;;;;5046901;28;20043;-62
2023/05/19 12:27:12;;;;;;;6.43;2.10;;;19.40;60.70;;;;;;5039501;28;20033;-63
2023/05/19 12:29:38;;;;;;;8.63;2.30;;;19.40;60.70;;;;;;5050678;28;20555;-62
2023/05/19 12:32:06;;;;;;;7.20;2.20;;;19.20;60.40;;;;;;5030272;28;20391;-62
2023/05/19 12:34:35;;;;;;;8.70;2.42;;;19.30;60.80;;;;;;5018635;28;20041;-62
2023/05/19 12:37:02;;;;;;;7.30;2.33;;;19.20;61.30;;;;;;5054590;28;20040;-62
2023/05/19 12:39:27;;;;;;;7.22;2.40;;;19.10;60.60;;;;;;5037325;28;20044;-62
2023/05/19 12:42:06;;;;;;;5.10;2.30;;;19.10;60.30;;;;;;5055407;28;20574;-62
2023/05/19 12:44:37;;;;;;;8.55;2.33;;;19.20;59.50;;;;;;5052897;28;20079;-62
2023/05/19 12:47:04;;;;;;;6.35;2.45;;;18.90;59.70;;;;;;5043314;28;20056;-62
2023/05/19 12:49:31;;;;;;;5.45;2.28;;;19.10;60.30;;;;;;5035069;28;20049;-62
2023/05/19 12:51:59;;;;;;;6.60;2.70;;;19.40;60.10;;;;;;5033706;28;20042;-62
2023/05/19 12:54:25;;;;;;;6.88;2.85;;;19.60;59.50;;;;;;5034723;28;20494;-61
2023/05/19 12:56:51;;;;;;;6.65;2.75;;;19.60;59.20;;;;;;5035103;28;20041;-62
2023/05/19 12:59:24;;;;;;;8.23;2.90;;;19.60;60.30;;;;;;5035137;28;20041;-62
2023/05/19 13:01:59;;;;;;;6.88;2.55;;;19.40;59.30;;;;;;5034812;28;20029;-62
2023/05/19 13:04:26;;;;;;;3.60;2.22;;;19.30;57.80;;;;;;5034819;28;20040;-62